Time;durP1;ratioP1;P1;durP2;ratioP2;P2;SDS_P1;SDS_P2;PMS_P1;PMS_P2;Temp;Humidity;BMP_temperature;BMP_pressure;BME280_temperature;BME280_humidity;BME280_pressure;Samples;Min_cycle;Max_cycle;Signal;HPM_P1;HPM_P2
2022/01/09 00:00:36;;;;;;;69.80;29.67;;;;;;;-4.04;79.65;99780.78;4502261;31;20154;-71
2022/01/09 00:03:04;;;;;;;68.07;30.75;;;;;;;-4.01;79.26;99774.06;4501913;31;20064;-71
2022/01/09 00:05:31;;;;;;;75.18;29.23;;;;;;;-3.98;78.96;99768.16;4502232;31;20396;-71
2022/01/09 00:07:59;;;;;;;67.43;28.77;;;;;;;-4.05;78.96;99766.19;4502141;31;20122;-71
2022/01/09 00:10:28;;;;;;;66.10;27.95;;;;;;;-3.92;78.02;99764.09;4502143;31;20442;-70
2022/01/09 00:12:56;;;;;;;61.00;26.25;;;;;;;-3.87;77.58;99762.56;4502190;31;20143;-70
2022/01/09 00:15:24;;;;;;;54.45;24.20;;;;;;;-3.80;78.11;99768.81;4502325;31;20135;-71
2022/01/09 00:17:51;;;;;;;62.70;26.05;;;;;;;-3.71;77.32;99755.38;4501865;31;20500;-70
2022/01/09 00:20:19;;;;;;;62.95;28.12;;;;;;;-4.05;78.21;99759.34;4502182;31;20178;-70
2022/01/09 00:22:48;;;;;;;61.90;27.52;;;;;;;-4.12;79.08;99752.22;4502109;31;20499;-71
2022/01/09 00:25:19;;;;;;;69.07;29.10;;;;;;;-4.18;79.01;99747.72;4502264;31;20079;-70
2022/01/09 00:27:47;;;;;;;63.63;27.20;;;;;;;-4.25;78.81;99739.72;4502100;31;20167;-70
2022/01/09 00:30:17;;;;;;;63.53;26.85;;;;;;;-4.20;78.61;99740.78;4502055;31;20099;-70
2022/01/09 00:32:45;;;;;;;59.65;26.48;;;;;;;-4.13;78.05;99740.19;4501884;31;20472;-71
2022/01/09 00:35:13;;;;;;;64.00;26.17;;;;;;;-4.19;78.29;99735.69;4502185;31;20138;-70
2022/01/09 00:37:41;;;;;;;55.75;25.37;;;;;;;-3.97;77.37;99726.16;4501959;31;20092;-71
2022/01/09 00:40:11;;;;;;;57.00;23.90;;;;;;;-3.79;77.04;99728.50;4501945;31;20111;-70
2022/01/09 00:42:38;;;;;;;56.90;26.75;;;;;;;-3.62;76.06;99738.56;4501928;31;20092;-70
2022/01/09 00:45:07;;;;;;;73.47;37.65;;;;;;;-4.06;77.08;99726.72;4501938;31;20594;-70
2022/01/09 00:47:34;;;;;;;69.95;32.60;;;;;;;-4.32;78.77;99725.75;4501873;31;20152;-70
2022/01/09 00:50:03;;;;;;;63.20;27.73;;;;;;;-4.38;79.54;99723.84;4501891;31;20159;-70
2022/01/09 00:52:30;;;;;;;64.85;26.65;;;;;;;-4.41;80.73;99721.16;4501901;31;20080;-70
2022/01/09 00:54:57;;;;;;;65.57;26.23;;;;;;;-4.28;80.57;99719.03;4502000;31;20110;-71
2022/01/09 00:57:25;;;;;;;55.97;26.17;;;;;;;-3.80;77.91;99713.88;4501792;31;20096;-71
2022/01/09 00:59:52;;;;;;;59.50;27.05;;;;;;;-4.14;80.23;99710.97;4501964;31;20146;-70
2022/01/09 01:02:19;;;;;;;54.45;26.40;;;;;;;-4.07;79.71;99699.22;4501867;31;20103;-70
2022/01/09 01:04:49;;;;;;;53.65;22.67;;;;;;;-4.02;79.66;99700.28;4501842;31;20455;-71
2022/01/09 01:07:16;;;;;;;46.53;20.10;;;;;;;-3.90;79.30;99690.38;4501977;31;20419;-71
2022/01/09 01:09:43;;;;;;;54.35;20.73;;;;;;;-3.49;77.02;99698.66;4501781;31;20156;-71
2022/01/09 01:12:10;;;;;;;49.63;20.58;;;;;;;-3.86;77.90;99691.38;4501917;31;20084;-71
2022/01/09 01:14:38;;;;;;;48.45;20.37;;;;;;;-4.13;79.07;99688.72;4501722;31;20155;-71
2022/01/09 01:17:06;;;;;;;42.85;19.60;;;;;;;-4.19;79.11;99681.66;4501711;31;20096;-71
2022/01/09 01:19:33;;;;;;;52.35;20.83;;;;;;;-4.19;78.95;99683.34;4501749;31;20099;-70
2022/01/09 01:22:21;;;;;;;43.95;19.37;;;;;;;-4.14;78.22;99667.25;4501686;31;20465;-71
2022/01/09 01:24:48;;;;;;;48.70;19.58;;;;;;;-4.39;79.17;99667.19;4501892;31;20095;-71
2022/01/09 01:27:15;;;;;;;43.83;19.00;;;;;;;-4.45;79.23;99662.72;4501657;31;20088;-70
2022/01/09 01:29:42;;;;;;;42.85;19.87;;;;;;;-4.34;78.79;99658.84;4501749;31;20152;-70
2022/01/09 01:32:09;;;;;;;44.03;19.70;;;;;;;-4.17;77.65;99648.25;4486939;31;20095;-70
2022/01/09 01:34:36;;;;;;;44.17;18.95;;;;;;;-4.16;77.19;99650.03;4501599;31;20091;-70
2022/01/09 01:37:04;;;;;;;44.03;19.40;;;;;;;-4.35;77.78;99648.47;4501595;31;20089;-70
2022/01/09 01:39:32;;;;;;;45.83;20.27;;;;;;;-4.42;77.90;99647.38;4501682;31;20126;-70
2022/01/09 01:41:59;;;;;;;42.15;20.33;;;;;;;-4.44;78.16;99649.03;4501818;31;20092;-70
2022/01/09 01:44:40;;;;;;;50.15;20.30;;;;;;;-4.41;77.87;99648.28;4501682;31;20201;-70
2022/01/09 01:47:08;;;;;;;43.83;20.30;;;;;;;-4.55;78.88;99645.22;4501456;31;20092;-70
2022/01/09 01:49:36;;;;;;;47.72;19.42;;;;;;;-4.50;78.74;99633.38;4501480;31;20127;-70
2022/01/09 01:52:04;;;;;;;45.10;19.60;;;;;;;-4.64;79.09;99639.72;4501423;31;20083;-70
2022/01/09 01:54:32;;;;;;;48.75;20.08;;;;;;;-4.76;79.15;99632.44;4501661;31;20091;-70
2022/01/09 01:57:02;;;;;;;47.47;21.48;;;;;;;-4.62;78.60;99632.97;4501384;31;20491;-70
2022/01/09 01:59:29;;;;;;;47.80;19.77;;;;;;;-4.81;79.24;99632.25;4501562;31;20091;-70
2022/01/09 02:01:58;;;;;;;44.03;19.37;;;;;;;-4.69;78.92;99628.41;4501378;31;20152;-71
2022/01/09 02:04:26;;;;;;;49.60;20.25;;;;;;;-4.52;77.52;99627.34;4501324;31;20147;-70
2022/01/09 02:06:54;;;;;;;43.28;20.55;;;;;;;-4.58;77.36;99621.97;4501465;31;20096;-70
2022/01/09 02:09:22;;;;;;;45.25;21.33;;;;;;;-4.54;77.81;99615.25;4501488;31;20104;-70
2022/01/09 02:11:50;;;;;;;48.60;21.52;;;;;;;-4.95;79.59;99620.59;4501223;31;20166;-70
2022/01/09 02:14:17;;;;;;;49.50;20.48;;;;;;;-5.11;79.83;99619.16;4501470;31;20122;-70
2022/01/09 02:16:44;;;;;;;46.33;19.50;;;;;;;-5.03;79.61;99610.84;4501029;31;20097;-70
2022/01/09 02:19:14;;;;;;;43.63;20.35;;;;;;;-4.77;79.33;99611.81;4501228;31;20087;-70
2022/01/09 02:21:44;;;;;;;46.78;20.85;;;;;;;-4.62;78.15;99608.12;4501155;31;20473;-70
2022/01/09 02:24:13;;;;;;;45.63;20.33;;;;;;;-4.89;78.71;99607.13;4501452;31;20099;-70
2022/01/09 02:26:41;;;;;;;47.30;21.55;;;;;;;-5.36;81.58;99606.19;4500482;31;20475;-70
2022/01/09 02:29:08;;;;;;;50.05;21.55;;;;;;;-5.40;81.73;99602.63;4500972;31;20096;-70
2022/01/09 02:31:36;;;;;;;54.38;22.33;;;;;;;-5.37;81.11;99602.75;4501026;31;20166;-70
2022/01/09 02:34:04;;;;;;;50.78;22.08;;;;;;;-5.24;80.80;99605.78;4500998;31;20448;-70
2022/01/09 02:36:31;;;;;;;56.15;23.05;;;;;;;-5.56;83.80;99603.72;4501182;31;20085;-70
2022/01/09 02:38:58;;;;;;;49.53;23.00;;;;;;;-5.60;83.28;99598.41;4500841;31;20091;-70
2022/01/09 02:41:26;;;;;;;60.65;23.77;;;;;;;-5.60;82.98;99601.84;4500968;31;20106;-70
2022/01/09 02:43:53;;;;;;;50.90;22.85;;;;;;;-5.53;82.61;99593.56;4500882;31;20119;-70
2022/01/09 02:48:54;;;;;;;46.92;22.55;;;;;;;-5.46;82.07;99592.13;4500899;31;20114;-70
2022/01/09 02:51:21;;;;;;;52.58;22.77;;;;;;;-5.18;80.62;99582.91;4500895;31;20433;-70
2022/01/09 02:53:57;;;;;;;51.05;23.27;;;;;;;-5.15;80.06;99583.91;4500812;31;20439;-70
2022/01/09 02:56:25;;;;;;;63.30;23.85;;;;;;;-5.65;82.65;99584.53;4500805;31;20180;-70
2022/01/09 02:58:52;;;;;;;56.42;22.10;;;;;;;-5.72;83.37;99577.38;4500776;31;20440;-70
2022/01/09 03:01:19;;;;;;;52.65;22.60;;;;;;;-5.70;83.26;99581.75;4500566;31;20748;-70
2022/01/09 03:03:46;;;;;;;54.92;23.15;;;;;;;-5.73;83.34;99586.75;4500714;31;20088;-70
2022/01/09 03:06:14;;;;;;;47.65;22.52;;;;;;;-5.61;82.42;99574.44;4500519;31;20126;-70
2022/01/09 03:08:41;;;;;;;47.28;22.35;;;;;;;-5.56;82.17;99575.47;4500630;31;20523;-70
2022/01/09 03:11:08;;;;;;;52.25;23.50;;;;;;;-5.66;82.69;99567.34;4500484;31;20589;-70
2022/01/09 03:13:35;;;;;;;56.75;23.10;;;;;;;-5.72;83.25;99570.56;4500404;31;20148;-70
2022/01/09 03:16:03;;;;;;;49.38;23.23;;;;;;;-6.14;87.27;99562.06;4500476;31;20108;-70
2022/01/09 03:18:30;;;;;;;60.03;27.65;;;;;;;-6.09;87.03;99556.28;4500204;31;20518;-70
2022/01/09 03:20:57;;;;;;;59.38;26.10;;;;;;;-6.01;86.86;99556.59;4500417;31;20494;-70
2022/01/09 03:23:24;;;;;;;61.72;25.45;;;;;;;-5.87;86.37;99546.84;4500279;31;20426;-70
2022/01/09 03:25:51;;;;;;;49.28;24.25;;;;;;;-5.83;85.03;99546.16;4500196;31;20452;-70
2022/01/09 03:28:19;;;;;;;63.78;25.48;;;;;;;-5.71;83.50;99540.66;4500090;31;20096;-70
2022/01/09 03:30:46;;;;;;;55.22;24.08;;;;;;;-5.83;85.38;99547.06;4500199;31;20107;-70
2022/01/09 03:33:13;;;;;;;51.20;24.10;;;;;;;-5.73;84.29;99545.72;4500150;31;20133;-70
2022/01/09 03:35:40;;;;;;;53.20;24.02;;;;;;;-5.59;83.59;99549.69;4500230;31;20123;-70
2022/01/09 03:38:07;;;;;;;61.05;26.10;;;;;;;-5.45;82.55;99545.09;4500648;31;20095;-70
2022/01/09 03:40:35;;;;;;;60.65;25.70;;;;;;;-5.72;83.34;99544.00;4488065;31;20514;-70
2022/01/09 03:43:02;;;;;;;56.13;23.40;;;;;;;-5.83;84.18;99552.19;4502578;31;20146;-70
2022/01/09 03:45:29;;;;;;;57.97;23.27;;;;;;;-5.57;82.54;99553.19;4502329;31;20092;-70
2022/01/09 03:47:57;;;;;;;52.20;23.67;;;;;;;-5.71;82.69;99559.47;4502459;31;20611;-70
2022/01/09 03:50:25;;;;;;;56.00;24.58;;;;;;;-5.74;82.80;99559.34;4502216;31;20088;-70
2022/01/09 03:52:52;;;;;;;57.33;25.60;;;;;;;-6.01;84.57;99554.03;4502658;31;20151;-70
2022/01/09 03:55:22;;;;;;;53.03;25.25;;;;;;;-6.20;86.44;99561.78;4502507;31;20134;-70
2022/01/09 03:57:49;;;;;;;54.70;25.58;;;;;;;-5.91;84.73;99558.69;4502379;31;20104;-70
2022/01/09 04:00:19;;;;;;;57.22;24.85;;;;;;;-6.25;86.74;99548.78;4502247;31;20135;-70
2022/01/09 04:02:48;;;;;;;59.72;27.20;;;;;;;-5.90;84.61;99549.28;4502591;31;20147;-70
2022/01/09 04:05:17;;;;;;;53.78;24.50;;;;;;;-6.04;84.92;99541.09;4502213;31;20439;-70
2022/01/09 04:07:44;;;;;;;59.20;27.70;;;;;;;-6.22;86.15;99533.50;4502253;31;20099;-70
2022/01/09 04:10:28;;;;;;;56.67;26.67;;;;;;;-6.26;86.88;99527.38;4502264;31;20102;-70
2022/01/09 04:12:59;;;;;;;64.62;26.00;;;;;;;-6.20;87.20;99516.50;4502331;31;20559;-70
2022/01/09 04:15:28;;;;;;;53.28;24.75;;;;;;;-6.16;85.49;99507.25;4502480;31;20154;-70
2022/01/09 04:17:56;;;;;;;62.45;27.05;;;;;;;-6.04;84.95;99512.91;4502016;31;20175;-70
2022/01/09 04:20:26;;;;;;;51.97;25.52;;;;;;;-6.07;85.04;99515.34;4502351;31;20140;-70
2022/01/09 04:22:55;;;;;;;61.20;26.95;;;;;;;-6.10;84.45;99516.06;4502393;31;20091;-70
2022/01/09 04:25:22;;;;;;;61.20;27.02;;;;;;;-6.32;84.90;99514.34;4502194;31;20103;-70
2022/01/09 04:27:50;;;;;;;60.67;27.10;;;;;;;-6.60;86.59;99516.56;4502033;31;20163;-70
2022/01/09 04:30:18;;;;;;;63.75;27.95;;;;;;;-6.44;85.52;99520.63;4502202;31;20126;-70
2022/01/09 04:32:46;;;;;;;54.25;26.17;;;;;;;-6.09;84.00;99525.50;4502069;31;20118;-70
2022/01/09 04:35:13;;;;;;;53.65;25.08;;;;;;;-5.84;82.56;99519.63;4502031;31;20092;-70
2022/01/09 04:37:41;;;;;;;62.22;27.08;;;;;;;-5.84;81.78;99518.75;4502029;31;20571;-70
2022/01/09 04:40:12;;;;;;;57.28;26.80;;;;;;;-6.29;83.81;99518.69;4502072;31;20110;-70
2022/01/09 04:42:45;;;;;;;56.67;26.33;;;;;;;-6.63;86.61;99513.87;4502048;31;20499;-70
2022/01/09 04:45:15;;;;;;;56.88;26.85;;;;;;;-6.80;88.19;99511.44;4501965;31;20142;-70
2022/01/09 04:47:45;;;;;;;59.22;26.23;;;;;;;-6.62;86.40;99501.09;4502342;31;20092;-70
2022/01/09 04:50:25;;;;;;;55.20;25.60;;;;;;;-6.02;83.65;99512.13;4501828;31;20083;-70
2022/01/09 04:52:59;;;;;;;57.13;26.50;;;;;;;-5.97;82.27;99508.84;4502004;31;20092;-70
2022/01/09 04:55:30;;;;;;;54.03;25.05;;;;;;;-6.37;83.67;99513.25;4502038;31;20563;-70
2022/01/09 04:57:57;;;;;;;60.05;26.10;;;;;;;-6.29;83.15;99511.91;4502291;31;20080;-71
2022/01/09 05:00:25;;;;;;;64.50;27.85;;;;;;;-6.39;83.21;99511.47;4501866;31;20087;-70
2022/01/09 05:02:53;;;;;;;59.95;26.62;;;;;;;-6.47;83.98;99503.44;4501916;31;20096;-70
2022/01/09 05:05:20;;;;;;;54.53;25.10;;;;;;;-6.43;83.87;99505.34;4501743;31;20100;-70
2022/01/09 05:07:47;;;;;;;63.25;27.48;;;;;;;-6.14;83.18;99513.34;4501845;31;20540;-70
2022/01/09 05:10:15;;;;;;;60.78;27.50;;;;;;;-6.27;82.59;99505.13;4501787;31;20109;-70
2022/01/09 05:12:42;;;;;;;49.85;24.30;;;;;;;-6.62;84.09;99508.78;4501888;31;20110;-70
2022/01/09 05:15:12;;;;;;;59.85;27.08;;;;;;;-6.35;83.25;99506.50;4501681;31;20442;-70
2022/01/09 05:17:40;;;;;;;55.35;25.85;;;;;;;-6.52;83.82;99507.50;4501690;31;20095;-70
2022/01/09 05:20:07;;;;;;;54.40;24.12;;;;;;;-6.19;82.82;99502.88;4501831;31;20590;-70
2022/01/09 05:22:35;;;;;;;54.67;25.05;;;;;;;-6.17;82.18;99503.81;4501728;31;20142;-70
2022/01/09 05:25:06;;;;;;;52.65;25.88;;;;;;;-6.27;82.28;99500.00;4501754;31;20175;-70
2022/01/09 05:27:35;;;;;;;55.12;27.00;;;;;;;-6.59;83.58;99498.69;4501994;31;20692;-70
2022/01/09 05:30:05;;;;;;;62.95;28.55;;;;;;;-6.71;84.07;99494.72;4501605;31;20135;-70
2022/01/09 05:32:32;;;;;;;62.38;29.58;;;;;;;-6.60;84.20;99503.75;4501704;31;20083;-70
2022/01/09 05:34:59;;;;;;;63.53;29.35;;;;;;;-6.79;87.25;99496.94;4501534;31;20099;-70
2022/01/09 05:37:27;;;;;;;63.90;29.50;;;;;;;-6.62;86.70;99498.53;4501605;31;20198;-70
2022/01/09 05:39:54;;;;;;;70.78;29.70;;;;;;;-6.67;88.03;99494.06;4501568;31;20479;-70
2022/01/09 05:42:21;;;;;;;62.80;29.75;;;;;;;-6.53;87.43;99500.63;4501550;31;20156;-70
2022/01/09 05:44:49;;;;;;;67.47;31.55;;;;;;;-6.52;86.54;99497.25;4501471;31;20122;-70
2022/01/09 05:47:16;;;;;;;69.30;31.37;;;;;;;-6.62;86.67;99500.25;4501501;31;20130;-70
2022/01/09 05:49:43;;;;;;;70.22;30.67;;;;;;;-6.94;89.20;99494.62;4501559;31;20152;-70
2022/01/09 05:52:11;;;;;;;66.85;29.33;;;;;;;-7.07;90.38;99489.78;4501486;31;20767;-70
2022/01/09 05:54:38;;;;;;;64.30;30.48;;;;;;;-6.81;89.19;99493.47;4501433;31;20092;-70
2022/01/09 05:57:06;;;;;;;69.50;29.98;;;;;;;-6.72;87.46;99486.16;4501449;31;20199;-70
2022/01/09 05:59:34;;;;;;;58.90;28.35;;;;;;;-6.55;85.85;99486.88;4501507;31;20148;-70
2022/01/09 06:02:01;;;;;;;62.05;28.90;;;;;;;-6.56;85.36;99478.31;4500479;31;20087;-70
2022/01/09 06:04:28;;;;;;;61.03;27.65;;;;;;;-6.44;84.42;99488.19;4501335;31;20100;-70
2022/01/09 06:06:55;;;;;;;59.45;28.30;;;;;;;-6.49;85.22;99492.25;4501328;31;20113;-70
2022/01/09 06:09:23;;;;;;;65.30;30.65;;;;;;;-6.60;85.15;99494.38;4501381;31;20084;-70
2022/01/09 06:11:50;;;;;;;66.50;29.40;;;;;;;-6.93;87.81;99491.25;4501252;31;20144;-70
2022/01/09 06:14:17;;;;;;;56.50;26.27;;;;;;;-6.98;88.00;99482.50;4501440;31;20674;-70
2022/01/09 06:16:44;;;;;;;64.00;26.95;;;;;;;-6.82;86.36;99487.47;4497533;31;111183;-70
2022/01/09 06:19:13;;;;;;;60.53;27.90;;;;;;;-6.62;84.96;99487.44;4501412;31;20127;-70
2022/01/09 06:21:40;;;;;;;61.47;27.95;;;;;;;-6.87;86.79;99481.25;4501214;31;20130;-70
2022/01/09 06:24:07;;;;;;;63.97;28.38;;;;;;;-6.84;86.58;99483.97;4501193;31;20123;-70
2022/01/09 06:26:34;;;;;;;59.42;26.50;;;;;;;-6.78;85.36;99479.09;4501394;31;20142;-70
2022/01/09 06:29:02;;;;;;;62.88;28.75;;;;;;;-6.69;84.55;99478.59;4501031;31;20076;-71
2022/01/09 06:31:29;;;;;;;58.70;26.58;;;;;;;-6.82;85.11;99482.34;4501052;31;20381;-70
2022/01/09 06:33:56;;;;;;;64.55;28.27;;;;;;;-6.46;83.90;99479.56;4500953;31;20183;-70
2022/01/09 06:36:23;;;;;;;60.00;26.65;;;;;;;-6.40;83.27;99490.06;4501010;31;20095;-70
2022/01/09 06:38:50;;;;;;;68.22;28.90;;;;;;;-6.19;82.82;99492.63;4501019;31;20084;-70
2022/01/09 06:41:18;;;;;;;57.72;28.02;;;;;;;-6.41;83.67;99497.69;4500848;31;20159;-70
2022/01/09 06:43:45;;;;;;;69.65;28.80;;;;;;;-6.68;85.43;99495.72;4500788;31;20088;-70
2022/01/09 06:46:12;;;;;;;63.65;29.83;;;;;;;-6.61;85.19;99495.16;4500777;31;20796;-70
2022/01/09 06:48:41;;;;;;;62.38;27.75;;;;;;;-6.57;85.04;99491.94;4500782;31;20087;-70
2022/01/09 06:51:10;;;;;;;63.67;28.12;;;;;;;-6.62;85.71;99493.41;4500609;31;20103;-70
2022/01/09 06:53:37;;;;;;;65.12;29.85;;;;;;;-6.46;85.31;99489.81;4500832;31;20100;-70
2022/01/09 06:56:05;;;;;;;66.78;30.40;;;;;;;-6.11;83.77;99500.59;4500383;31;20118;-70
2022/01/09 06:58:33;;;;;;;72.18;32.13;;;;;;;-6.29;84.21;99496.53;4500260;31;20083;-70
2022/01/09 07:01:00;;;;;;;78.85;34.72;;;;;;;-6.35;84.66;99490.25;4500026;31;20890;-70
2022/01/09 07:03:27;;;;;;;77.22;34.88;;;;;;;-6.54;86.86;99489.50;4500358;31;20138;-70
2022/01/09 07:05:54;;;;;;;77.82;34.92;;;;;;;-6.53;88.01;99503.19;4500438;31;20159;-71
2022/01/09 07:08:21;;;;;;;89.65;35.90;;;;;;;-6.30;86.50;99504.13;4500625;31;20110;-70
2022/01/09 07:10:49;;;;;;;86.43;36.17;;;;;;;-6.15;85.82;99503.88;4500237;31;20126;-70
2022/01/09 07:13:18;;;;;;;79.90;33.63;;;;;;;-5.98;84.44;99502.84;4502150;31;20142;-70
2022/01/09 07:15:45;;;;;;;78.82;35.97;;;;;;;-5.87;83.86;99498.97;4502598;31;20116;-70
2022/01/09 07:18:12;;;;;;;81.32;35.40;;;;;;;-5.80;83.65;99503.53;4502407;31;20083;-70
2022/01/09 07:20:39;;;;;;;82.62;35.42;;;;;;;-5.74;84.03;99500.34;4502557;31;20083;-70
2022/01/09 07:23:06;;;;;;;80.70;32.78;;;;;;;-5.61;83.71;99504.28;4502430;31;20092;-70
2022/01/09 07:25:34;;;;;;;79.53;31.27;;;;;;;-5.57;83.95;99503.56;4502530;31;20096;-70
2022/01/09 07:28:02;;;;;;;74.43;32.30;;;;;;;-5.41;83.60;99502.44;4502690;31;20088;-71
2022/01/09 07:30:29;;;;;;;77.85;32.80;;;;;;;-5.30;83.22;99499.47;4502479;31;20560;-70
2022/01/09 07:32:58;;;;;;;88.28;36.63;;;;;;;-5.05;82.03;99492.66;4502302;31;20793;-70
2022/01/09 07:35:26;;;;;;;78.72;35.42;;;;;;;-5.00;82.27;99498.81;4502426;31;20171;-70
2022/01/09 07:37:53;;;;;;;84.82;36.17;;;;;;;-4.87;81.56;99495.88;4502634;31;20142;-70
2022/01/09 07:40:21;;;;;;;94.15;35.22;;;;;;;-4.87;82.44;99487.28;4502356;31;20095;-70
2022/01/09 07:42:48;;;;;;;67.78;31.30;;;;;;;-4.99;84.35;99487.72;4502315;31;20122;-70
2022/01/09 07:45:19;;;;;;;83.55;31.35;;;;;;;-4.81;84.04;99478.06;4502484;31;20088;-70
2022/01/09 07:47:46;;;;;;;76.18;30.80;;;;;;;-4.71;85.27;99479.28;4502477;31;20174;-70
2022/01/09 07:50:14;;;;;;;73.47;30.08;;;;;;;-4.54;85.08;99479.00;4502267;31;20121;-70
2022/01/09 07:52:42;;;;;;;74.75;31.73;;;;;;;-4.47;84.33;99480.94;4502233;31;20126;-70
2022/01/09 07:55:10;;;;;;;73.45;31.10;;;;;;;-4.57;85.36;99482.31;4502080;31;20123;-70
2022/01/09 07:57:38;;;;;;;78.07;30.30;;;;;;;-4.39;85.86;99479.50;4502165;31;20080;-70
2022/01/09 08:00:07;;;;;;;72.15;29.63;;;;;;;-4.17;84.42;99474.25;4502365;31;20083;-70
2022/01/09 08:02:39;;;;;;;59.67;26.02;;;;;;;-4.02;83.53;99485.84;4501889;31;20149;-70
2022/01/09 08:05:08;;;;;;;66.10;26.70;;;;;;;-4.00;84.34;99481.59;4502186;31;20175;-70
2022/01/09 08:07:35;;;;;;;64.95;27.15;;;;;;;-3.98;84.15;99480.84;4502269;31;20138;-70
2022/01/09 08:10:03;;;;;;;59.25;27.52;;;;;;;-3.91;83.40;99487.91;4502158;31;20091;-70
2022/01/09 08:12:36;;;;;;;64.05;27.95;;;;;;;-3.85;84.69;99469.22;4502481;31;20156;-70
2022/01/09 08:15:05;;;;;;;69.72;28.15;;;;;;;-3.82;84.44;99465.84;4502257;31;20435;-70
2022/01/09 08:17:32;;;;;;;64.70;28.35;;;;;;;-3.79;85.09;99473.69;4502161;31;20088;-70
2022/01/09 08:20:00;;;;;;;60.47;25.10;;;;;;;-3.77;85.03;99465.19;4502491;31;20113;-70
2022/01/09 08:22:29;;;;;;;58.53;26.83;;;;;;;-3.81;84.91;99465.06;4502043;31;20114;-70
2022/01/09 08:24:57;;;;;;;54.65;24.40;;;;;;;-3.59;84.72;99464.84;4501631;31;20099;-70
2022/01/09 08:27:24;;;;;;;50.25;22.77;;;;;;;-3.46;82.55;99466.97;4502071;31;20107;-70
2022/01/09 08:29:51;;;;;;;57.72;23.87;;;;;;;-3.52;83.44;99474.50;4502252;31;20096;-70
2022/01/09 08:32:19;;;;;;;63.45;28.40;;;;;;;-3.49;83.22;99476.31;4502194;31;20152;-70
2022/01/09 08:34:46;;;;;;;123.60;53.83;;;;;;;-3.29;82.12;99476.88;4501965;31;20099;-70
2022/01/09 08:37:14;;;;;;;69.87;31.70;;;;;;;-3.27;82.93;99478.69;4502420;31;20143;-72
2022/01/09 08:39:42;;;;;;;76.97;30.58;;;;;;;-3.18;83.05;99475.47;4502036;31;20122;-71
2022/01/09 08:42:09;;;;;;;54.83;26.00;;;;;;;-2.96;81.20;99476.97;4502011;31;20125;-70
2022/01/09 08:44:37;;;;;;;176.50;55.10;;;;;;;-2.87;81.63;99472.03;4501922;31;20096;-70
2022/01/09 08:47:05;;;;;;;73.05;30.08;;;;;;;-2.78;81.38;99481.75;4501891;31;20095;-70
2022/01/09 08:49:33;;;;;;;62.00;25.50;;;;;;;-2.95;83.08;99476.13;4487220;31;20167;-70
2022/01/09 08:52:00;;;;;;;63.47;25.92;;;;;;;-2.87;83.03;99474.63;4501891;31;20755;-70
2022/01/09 08:54:29;;;;;;;53.97;24.87;;;;;;;-2.74;82.74;99470.69;4501891;31;20534;-70
2022/01/09 08:56:57;;;;;;;65.32;26.85;;;;;;;-2.48;82.40;99469.63;4502206;31;20091;-70
2022/01/09 08:59:26;;;;;;;59.90;26.55;;;;;;;-2.16;79.89;99474.72;4501897;31;20121;-70
2022/01/09 09:01:54;;;;;;;56.65;23.70;;;;;;;-2.06;78.83;99484.44;4501786;31;20151;-70
2022/01/09 09:04:21;;;;;;;48.85;21.70;;;;;;;-2.08;80.06;99478.38;4501890;31;20568;-70
2022/01/09 09:06:48;;;;;;;46.60;21.00;;;;;;;-1.99;80.72;99473.41;4502014;31;20131;-70
2022/01/09 09:09:15;;;;;;;54.95;21.90;;;;;;;-1.77;79.30;99476.50;4501983;31;20096;-70
2022/01/09 09:11:43;;;;;;;46.67;21.33;;;;;;;-1.50;78.01;99471.94;4501618;31;20084;-70
2022/01/09 09:14:10;;;;;;;55.55;23.25;;;;;;;-1.39;77.73;99473.91;4501778;31;20101;-70
2022/01/09 09:16:37;;;;;;;56.00;24.63;;;;;;;-1.26;77.91;99484.53;4501716;31;20080;-70
2022/01/09 09:19:04;;;;;;;53.13;23.05;;;;;;;-1.14;76.66;99491.66;4501822;31;20179;-70
2022/01/09 09:21:31;;;;;;;53.67;22.45;;;;;;;-1.07;76.63;99503.00;4501634;31;20564;-70
2022/01/09 09:23:58;;;;;;;44.88;20.55;;;;;;;-0.91;76.11;99496.44;4501657;31;20602;-70
2022/01/09 09:26:26;;;;;;;49.88;22.15;;;;;;;-0.76;75.33;99494.12;4501814;31;20143;-70
2022/01/09 09:28:53;;;;;;;59.35;23.75;;;;;;;-0.65;74.87;99490.03;4501581;31;20515;-70
2022/01/09 09:31:20;;;;;;;54.60;24.30;;;;;;;-0.47;74.84;99494.66;4501635;31;20159;-70
2022/01/09 09:33:48;;;;;;;57.28;24.85;;;;;;;-0.29;73.95;99495.00;4501665;31;20542;-70
2022/01/09 09:36:15;;;;;;;56.80;26.80;;;;;;;-0.28;73.76;99488.13;4500268;31;20126;-70
2022/01/09 09:38:42;;;;;;;56.22;24.92;;;;;;;-0.05;73.91;99491.06;4501533;31;20110;-70
2022/01/09 09:41:09;;;;;;;53.65;23.75;;;;;;;-0.13;74.14;99493.53;4501478;31;20148;-70
2022/01/09 09:43:36;;;;;;;49.35;23.12;;;;;;;0.19;73.52;99495.78;4501603;31;20130;-70
2022/01/09 09:46:04;;;;;;;50.42;22.50;;;;;;;0.25;73.14;99493.28;4501507;31;20191;-70
2022/01/09 09:48:31;;;;;;;53.97;24.87;;;;;;;0.18;72.94;99492.31;4501519;31;20111;-71
2022/01/09 09:50:58;;;;;;;53.70;23.62;;;;;;;0.09;73.26;99486.12;4501318;31;20696;-71
2022/01/09 09:53:26;;;;;;;58.03;23.77;;;;;;;0.26;73.74;99489.84;4501670;31;20187;-71
2022/01/09 09:55:53;;;;;;;54.25;23.25;;;;;;;0.40;73.28;99497.81;4501666;31;20186;-70
2022/01/09 09:58:22;;;;;;;53.28;22.20;;;;;;;0.99;71.53;99495.19;4501399;31;20475;-71
2022/01/09 10:00:54;;;;;;;58.70;24.50;;;;;;;1.07;69.45;99500.44;4501330;31;20180;-70
2022/01/09 10:03:33;;;;;;;52.65;22.60;;;;;;;1.04;70.41;99488.31;4501593;31;20155;-70
2022/01/09 10:06:01;;;;;;;53.80;23.40;;;;;;;1.31;69.62;99494.69;4501383;31;20101;-71
2022/01/09 10:08:37;;;;;;;54.25;23.73;;;;;;;1.02;68.98;99494.31;4501403;31;20121;-71
2022/01/09 10:11:18;;;;;;;49.67;22.55;;;;;;;1.15;69.88;99504.00;4501365;31;20118;-70
2022/01/09 10:13:45;;;;;;;59.38;24.95;;;;;;;1.55;68.51;99502.69;4501347;31;20177;-70
2022/01/09 10:16:15;;;;;;;58.70;23.62;;;;;;;1.85;68.05;99496.94;4501451;31;20075;-70
2022/01/09 10:18:42;;;;;;;47.13;23.25;;;;;;;2.23;66.05;99495.53;4501412;31;20118;-70
2022/01/09 10:21:18;;;;;;;55.03;24.00;;;;;;;2.19;65.89;99497.22;4501172;31;20163;-71
2022/01/09 10:24:04;;;;;;;38.17;19.05;;;;;;;2.07;66.79;99499.72;4501202;31;20100;-70
2022/01/09 10:26:36;;;;;;;41.55;18.15;;;;;;;1.59;67.08;99493.22;4501067;31;20080;-70
2022/01/09 10:29:06;;;;;;;38.08;17.90;;;;;;;1.76;66.01;99489.06;4501350;31;20084;-70
2022/01/09 10:31:45;;;;;;;43.75;19.50;;;;;;;2.15;65.43;99479.84;4501107;31;20148;-71
2022/01/09 10:34:12;;;;;;;41.42;17.65;;;;;;;2.21;65.07;99476.44;4501095;31;20125;-71
2022/01/09 10:36:50;;;;;;;40.80;17.75;;;;;;;2.92;64.87;99467.31;4501089;31;20492;-70
2022/01/09 10:39:30;;;;;;;41.50;17.75;;;;;;;3.82;60.64;99470.16;4501014;31;20416;-73
2022/01/09 10:42:01;;;;;;;36.95;16.50;;;;;;;3.72;60.91;99471.00;4500971;31;20118;-71
2022/01/09 10:44:33;;;;;;;37.28;17.40;;;;;;;4.06;58.67;99458.81;4500967;31;20145;-71
2022/01/09 10:47:06;;;;;;;32.78;16.55;;;;;;;4.34;58.94;99453.59;4501342;31;20586;-71
2022/01/09 10:49:41;;;;;;;35.05;17.50;;;;;;;4.82;57.54;99449.12;4502864;31;20550;-71
2022/01/09 10:52:27;;;;;;;36.40;17.50;;;;;;;5.62;54.61;99439.09;4502718;31;20436;-71
2022/01/09 10:54:56;;;;;;;30.73;17.50;;;;;;;5.75;52.64;99439.00;4502774;31;20122;-71
2022/01/09 10:57:29;;;;;;;36.20;19.70;;;;;;;5.85;52.50;99433.72;4502723;31;20122;-71
2022/01/09 11:00:15;;;;;;;40.10;19.23;;;;;;;5.43;53.65;99440.97;4502903;31;20084;-71
2022/01/09 11:02:46;;;;;;;44.03;19.58;;;;;;;6.33;51.75;99437.69;4502773;31;20091;-71
2022/01/09 11:05:14;;;;;;;36.28;19.08;;;;;;;7.04;50.00;99429.91;4502704;31;20130;-71
2022/01/09 11:07:48;;;;;;;39.28;20.48;;;;;;;7.86;48.90;99434.81;4502828;31;20071;-71
2022/01/09 11:10:17;;;;;;;36.05;20.48;;;;;;;7.49;48.29;99426.66;4502624;31;20084;-71
2022/01/09 11:12:49;;;;;;;40.40;20.98;;;;;;;8.04;47.24;99425.78;4502810;31;20125;-71
2022/01/09 11:15:21;;;;;;;36.47;19.52;;;;;;;8.66;45.37;99421.19;4502682;31;20096;-71
2022/01/09 11:17:49;;;;;;;41.42;20.52;;;;;;;9.14;44.30;99414.94;4502589;31;20079;-71
2022/01/09 11:20:17;;;;;;;37.67;20.08;;;;;;;9.46;42.93;99419.50;4502668;31;20518;-71
2022/01/09 11:22:47;;;;;;;34.85;20.85;;;;;;;9.52;43.55;99422.84;4502647;31;20108;-71
2022/01/09 11:25:38;;;;;;;35.63;20.45;;;;;;;9.04;43.23;99425.66;4502598;31;20155;-71
2022/01/09 11:28:13;;;;;;;35.40;21.25;;;;;;;8.58;43.16;99423.94;4502557;31;20511;-71